首页
METAR-TAF:

METAR-TAF

机场 :

Sioux Gateway Airport (Col. Bud Day Field)

蘇城, 艾奥瓦州, 美国

纬度: 42-24-09N, 经度: 096-23-04W, 海拔: 335米

当前天气观测

该预报发布于41分钟前的05:52 UTC
风速6节,风向西转西北
温度 4°C
湿度 93%
气压 1008 hPa
能見度: 16.1公里
天空无云

METAR: KSUX 190552Z AUTO 29006KT 10SM CLR 04/03 A2978 RMK AO2 SLP090 T00440033 10111 20039 401501050 51011

时间: 00:33 (06:33 UTC)

预报

该预报发布于1小时和13分钟前的05:20 UTC
预报有效从19日的 06点(UTC)到 20日的 06点(UTC)
风速8节,风向西北
能見度: 10公里
少量云层高于25000英尺
从 19日的 2000点(UTC)
风速4节,风向多变
能見度: 10公里
少量云层高于25000英尺
从 20日的 0000点(UTC)
风速3节,风向东转东南
能見度: 10公里
少量云层高于25000英尺
从 20日的 0400点(UTC)
风速5节,风向东南
能見度: 10公里
散云层高于20000英尺

TAF: KSUX 190520Z 1906/2006 31008KT P6SM FEW250 FM192000 VRB04KT P6SM FEW250 FM200000 11003KT P6SM FEW250 FM200400 13005KT P6SM SCT200

超过4000个机场的气象观测和天气预报(METAR&TAF报告)。

可查询的气象台以黄色和红色小点在地图上表示。

将鼠标移到小点上方,可查看气象台名称。

然后点击查看天气观测和预报。

如需切换地图:点击带黑十字的绿色按钮放大地图;点击带横线的绿色按钮缩小地图;或者点击绿色箭头查看邻近地区的地图。


METAR-TAF: